createdAt,value
2018-08-17T00:02:27.528Z,100636.67
2018-08-17T00:04:57.783Z,100640.19
2018-08-17T00:07:29.285Z,100641.23
2018-08-17T00:09:59.302Z,100634.18
2018-08-17T00:12:29.599Z,100628.34
2018-08-17T00:14:59.385Z,100629.19
2018-08-17T00:17:29.121Z,100622.97
2018-08-17T00:19:59.754Z,100618.72
2018-08-17T00:22:29.729Z,100631.95
2018-08-17T00:24:59.658Z,100627.91
2018-08-17T00:27:29.360Z,100627.52
2018-08-17T00:29:58.943Z,100618.72
2018-08-17T00:32:28.505Z,100619.61
2018-08-17T00:34:58.034Z,100617.61
2018-08-17T00:37:27.733Z,100612.20
2018-08-17T00:39:57.363Z,100620.31
2018-08-17T00:42:27.169Z,100612.61
2018-08-17T00:44:56.738Z,100613.25
2018-08-17T00:47:26.340Z,100614.57
2018-08-17T00:49:55.955Z,100609.21
2018-08-17T00:52:25.560Z,100614.69
2018-08-17T00:54:55.599Z,100611.19
2018-08-17T00:57:25.226Z,100603.86
2018-08-17T00:59:54.839Z,100609.59
2018-08-17T01:02:24.422Z,100615.06
2018-08-17T01:04:54.021Z,100614.28
2018-08-17T01:07:23.711Z,100623.30
2018-08-17T01:09:53.430Z,100621.34
2018-08-17T01:12:23.042Z,100623.52
2018-08-17T01:14:52.716Z,100626.83
2018-08-17T01:17:22.437Z,100623.87
2018-08-17T01:19:52.048Z,100619.29
2018-08-17T01:22:21.921Z,100620.19
2018-08-17T01:24:51.956Z,100625.13
2018-08-17T01:27:21.918Z,100626.11
2018-08-17T01:29:51.569Z,100629.81
2018-08-17T01:32:21.470Z,100637.59
2018-08-17T01:34:51.078Z,100643.28
2018-08-17T01:37:20.711Z,100643.70
2018-08-17T01:39:50.492Z,100646.24
2018-08-17T01:42:20.111Z,100641.36
2018-08-17T01:44:49.898Z,100650.22
2018-08-17T01:47:19.804Z,100648.01
2018-08-17T01:49:49.845Z,100648.05
2018-08-17T01:52:19.558Z,100653.65
2018-08-17T01:54:49.340Z,100655.34
2018-08-17T01:57:18.920Z,100655.82
2018-08-17T01:59:48.494Z,100666.06
2018-08-17T02:02:18.105Z,100666.39
2018-08-17T02:04:48.639Z,100677.08
2018-08-17T02:07:18.317Z,100679.06
2018-08-17T02:09:47.904Z,100687.00
2018-08-17T02:12:17.454Z,100671.43
2018-08-17T02:14:47.323Z,100678.33
2018-08-17T02:17:17.030Z,100681.02
2018-08-17T02:19:46.858Z,100677.16
2018-08-17T02:22:16.529Z,100680.87
2018-08-17T02:24:46.335Z,100681.58
2018-08-17T02:27:15.928Z,100680.98
2018-08-17T02:29:45.581Z,100681.54
2018-08-17T02:32:16.374Z,100691.29
2018-08-17T02:34:46.483Z,100683.73
2018-08-17T02:37:16.154Z,100689.48
2018-08-17T02:39:46.045Z,100682.67
2018-08-17T02:42:15.679Z,100684.30
2018-08-17T02:44:45.337Z,100691.78
2018-08-17T02:47:14.917Z,100704.69
2018-08-17T02:49:44.642Z,100709.73
2018-08-17T02:52:14.265Z,100709.59
2018-08-17T02:54:43.852Z,100725.28
2018-08-17T02:57:13.453Z,100722.28
2018-08-17T02:59:43.383Z,100734.59
2018-08-17T03:02:14.088Z,100732.71
2018-08-17T03:04:43.663Z,100737.18
2018-08-17T03:07:16.238Z,100739.44
2018-08-17T03:09:45.854Z,100741.86
2018-08-17T03:12:15.519Z,100730.64
2018-08-17T03:14:45.261Z,100746.34
2018-08-17T03:17:15.856Z,100743.03
2018-08-17T03:19:45.461Z,100746.66
2018-08-17T03:22:15.282Z,100748.36
2018-08-17T03:24:45.039Z,100753.69
2018-08-17T03:27:14.639Z,100755.15
2018-08-17T03:29:44.208Z,100760.31
2018-08-17T03:32:13.844Z,100764.66
2018-08-17T03:34:43.728Z,100760.05
2018-08-17T03:37:13.451Z,100758.59
2018-08-17T03:39:43.313Z,100758.13
2018-08-17T03:42:14.015Z,100751.41
2018-08-17T03:44:43.692Z,100751.03
2018-08-17T03:47:13.336Z,100761.77
2018-08-17T03:49:43.012Z,100761.39
2018-08-17T03:52:12.806Z,100765.50
2018-08-17T03:54:42.379Z,100759.12
2018-08-17T03:57:12.385Z,100756.34
2018-08-17T03:59:42.064Z,100757.19
2018-08-17T04:02:11.663Z,100753.92
2018-08-17T04:04:41.730Z,100757.66
2018-08-17T04:07:11.340Z,100769.95
2018-08-17T04:09:41.179Z,100777.89
2018-08-17T04:12:10.936Z,100775.72
2018-08-17T04:14:41.156Z,100770.90
2018-08-17T04:17:10.975Z,100781.25
2018-08-17T04:19:40.594Z,100789.91
2018-08-17T04:22:10.213Z,100793.41
2018-08-17T04:24:39.805Z,100794.12
2018-08-17T04:27:09.492Z,100797.52
2018-08-17T04:29:39.132Z,100793.41
2018-08-17T04:32:09.196Z,100794.12
2018-08-17T04:34:39.590Z,100792.69
2018-08-17T04:37:09.487Z,100784.98
2018-08-17T04:39:39.425Z,100778.22
2018-08-17T04:42:09.512Z,100786.64
2018-08-17T04:44:39.293Z,100789.66
2018-08-17T04:47:10.816Z,100795.67
2018-08-17T04:49:40.400Z,100796.21
2018-08-17T04:52:10.239Z,100797.78
2018-08-17T04:54:39.852Z,100802.22
2018-08-17T04:57:09.465Z,100814.24
2018-08-17T04:59:39.275Z,100813.16
2018-08-17T05:02:09.150Z,100810.88
2018-08-17T05:04:38.705Z,100826.91
2018-08-17T05:07:09.121Z,100838.08
2018-08-17T05:09:38.689Z,100829.42
2018-08-17T05:12:08.520Z,100838.45
2018-08-17T05:14:38.449Z,100838.92
2018-08-17T05:17:08.523Z,100844.13
2018-08-17T05:19:38.155Z,100854.84
2018-08-17T05:22:08.524Z,100855.08
2018-08-17T05:24:38.083Z,100861.66
2018-08-17T05:27:08.118Z,100864.83
2018-08-17T05:29:37.689Z,100872.91
2018-08-17T05:32:08.332Z,100871.17
2018-08-17T05:34:37.884Z,100885.20
2018-08-17T05:37:08.811Z,100890.73
2018-08-17T05:39:38.535Z,100886.25
2018-08-17T05:42:08.300Z,100893.83
2018-08-17T05:44:37.971Z,100897.56
2018-08-17T05:47:08.103Z,100909.83
2018-08-17T05:49:37.954Z,100916.11
2018-08-17T05:52:07.647Z,100917.53
2018-08-17T05:54:37.251Z,100917.23
2018-08-17T05:57:07.199Z,100932.77
2018-08-17T05:59:36.952Z,100935.28
2018-08-17T06:02:06.750Z,100947.81
2018-08-17T06:04:37.052Z,100938.31
2018-08-17T06:07:07.293Z,100931.92
2018-08-17T06:09:36.807Z,100927.23
2018-08-17T06:12:07.056Z,100917.95
2018-08-17T06:14:36.958Z,100911.81
2018-08-17T06:17:07.121Z,100912.66
2018-08-17T06:19:36.766Z,100898.45
2018-08-17T06:22:06.946Z,100921.33
2018-08-17T06:24:36.533Z,100933.25
2018-08-17T06:27:06.789Z,100928.42
2018-08-17T06:29:37.643Z,100922.41
2018-08-17T06:32:08.707Z,100915.07
2018-08-17T06:34:39.147Z,100922.03
2018-08-17T06:37:09.843Z,100927.84
2018-08-17T06:39:40.224Z,100961.31
2018-08-17T06:42:14.687Z,100969.88
2018-08-17T06:44:44.335Z,100977.13
2018-08-17T06:47:13.910Z,100965.05
2018-08-17T06:49:43.616Z,100993.27
2018-08-17T06:52:13.856Z,101005.55
2018-08-17T06:54:44.664Z,101018.33
2018-08-17T06:57:15.955Z,101030.98
2018-08-17T06:59:46.083Z,101015.67
2018-08-17T07:02:17.108Z,100994.94
2018-08-17T07:04:46.896Z,100991.44
2018-08-17T07:07:16.726Z,100998.77
2018-08-17T07:09:46.724Z,100998.89
2018-08-17T07:12:16.992Z,100997.62
2018-08-17T07:14:46.578Z,101007.07
2018-08-17T07:17:16.219Z,100998.77
2018-08-17T07:19:45.903Z,100992.20
2018-08-17T07:22:15.558Z,100998.41
2018-08-17T07:24:45.156Z,100999.19
2018-08-17T07:27:15.298Z,101006.03
2018-08-17T07:29:44.948Z,101008.25
2018-08-17T07:32:16.898Z,100999.33
2018-08-17T07:34:46.552Z,100992.95
2018-08-17T07:37:16.391Z,100988.73
2018-08-17T07:39:46.007Z,100992.82
2018-08-17T07:42:15.726Z,100988.02
2018-08-17T07:44:45.273Z,100982.52
2018-08-17T07:47:15.277Z,100969.89
2018-08-17T07:49:45.599Z,100952.56
2018-08-17T07:52:15.367Z,100930.42
2018-08-17T07:54:44.927Z,100942.59
2018-08-17T07:57:14.636Z,100943.78
2018-08-17T07:59:44.312Z,100931.76
2018-08-17T08:02:14.384Z,100926.22
2018-08-17T08:04:44.398Z,100927.55
2018-08-17T08:07:13.923Z,100922.12
2018-08-17T08:09:43.488Z,100917.20
2018-08-17T08:12:13.064Z,100906.59
2018-08-17T08:14:42.660Z,100894.30
2018-08-17T08:17:12.684Z,100896.14
2018-08-17T08:19:42.259Z,100897.60
2018-08-17T08:22:12.246Z,100894.72
2018-08-17T08:24:41.961Z,100890.13
2018-08-17T08:27:11.641Z,100872.77
2018-08-17T08:29:41.285Z,100880.72
2018-08-17T08:32:11.166Z,100885.55
2018-08-17T08:34:40.767Z,100900.25
2018-08-17T08:37:10.823Z,100899.78
2018-08-17T08:39:40.881Z,100904.57
2018-08-17T08:42:10.634Z,100909.63
2018-08-17T08:44:40.320Z,100917.82
2018-08-17T08:47:09.892Z,100931.31
2018-08-17T08:49:39.419Z,100937.70
2018-08-17T08:52:09.609Z,100938.78
2018-08-17T08:54:39.212Z,100946.73
2018-08-17T08:57:09.029Z,100955.78
2018-08-17T08:59:39.083Z,100960.23
2018-08-17T09:02:08.925Z,100966.00
2018-08-17T09:04:38.805Z,100960.92
2018-08-17T09:07:08.837Z,100968.30
2018-08-17T09:09:38.389Z,100967.33
2018-08-17T09:12:08.573Z,100969.36
2018-08-17T09:14:38.379Z,100971.06
2018-08-17T09:17:08.247Z,100975.66
2018-08-17T09:19:38.118Z,100981.53
2018-08-17T09:22:07.879Z,100982.95
2018-08-17T09:24:37.653Z,100978.41
2018-08-17T09:27:07.699Z,100982.34
2018-08-17T09:29:37.682Z,100989.26
2018-08-17T09:32:07.279Z,100995.24
2018-08-17T09:34:36.884Z,101002.61
2018-08-17T09:37:06.712Z,101012.63
2018-08-17T09:39:36.624Z,101003.98
2018-08-17T09:42:06.752Z,101006.63
2018-08-17T09:44:36.499Z,101006.52
2018-08-17T09:47:06.177Z,101012.31
2018-08-17T09:49:36.657Z,101003.27
2018-08-17T09:52:06.861Z,101005.68
2018-08-17T09:54:36.636Z,101011.22
2018-08-17T09:57:06.685Z,101008.33
2018-08-17T09:59:36.529Z,101000.72
2018-08-17T10:02:12.541Z,101006.26
2018-08-17T10:04:46.696Z,101006.87
2018-08-17T10:07:21.852Z,101003.50
2018-08-17T10:09:55.483Z,101007.59
2018-08-17T10:12:25.501Z,101009.42
2018-08-17T10:14:55.181Z,101017.72
2018-08-17T10:17:24.974Z,101018.81
2018-08-17T10:19:54.924Z,101013.16
2018-08-17T10:22:24.565Z,101019.52
2018-08-17T10:25:01.497Z,101012.08
2018-08-17T10:27:31.379Z,101014.97
2018-08-17T10:30:02.799Z,101015.44
2018-08-17T10:32:39.658Z,101017.01
2018-08-17T10:35:15.719Z,101023.63
2018-08-17T10:37:45.394Z,101032.20
2018-08-17T10:40:15.071Z,101033.77
2018-08-17T10:42:44.773Z,101033.39
2018-08-17T10:45:14.616Z,101040.02
2018-08-17T10:47:44.504Z,101038.36
2018-08-17T10:50:19.295Z,101040.16
2018-08-17T10:52:51.244Z,101040.87
2018-08-17T10:55:22.634Z,101043.29
2018-08-17T10:57:52.796Z,101041.48
2018-08-17T11:00:22.903Z,101041.95
2018-08-17T11:02:52.818Z,101040.63
2018-08-17T11:05:22.485Z,101022.68
2018-08-17T11:07:52.238Z,101027.85
2018-08-17T11:10:21.798Z,101028.23
2018-08-17T11:12:51.583Z,101019.05
2018-08-17T11:15:21.359Z,101028.09
2018-08-17T11:17:51.049Z,101034.11
2018-08-17T11:20:20.974Z,101033.16
2018-08-17T11:22:50.620Z,101033.39
2018-08-17T11:25:20.652Z,101037.84
2018-08-17T11:27:51.218Z,101043.66
2018-08-17T11:30:20.987Z,101047.15
2018-08-17T11:32:50.739Z,101034.59
2018-08-17T11:35:20.453Z,101045.55
2018-08-17T11:37:50.087Z,101042.30
2018-08-17T11:40:21.847Z,101048.59
2018-08-17T11:42:52.025Z,101048.45
2018-08-17T11:45:22.896Z,101048.45
2018-08-17T11:47:53.962Z,101057.02
2018-08-17T11:50:25.619Z,101048.68
2018-08-17T11:52:56.730Z,101059.53
2018-08-17T11:55:27.935Z,101060.51
2018-08-17T11:57:58.459Z,101060.73
2018-08-17T12:00:34.339Z,101064.70
2018-08-17T12:03:04.268Z,101065.66
2018-08-17T12:05:36.268Z,101060.36
2018-08-17T12:08:06.138Z,101066.39
2018-08-17T12:10:35.870Z,101071.23
2018-08-17T12:13:10.681Z,101075.45
2018-08-17T12:15:49.003Z,101071.48
2018-08-17T12:18:19.393Z,101067.40
2018-08-17T12:20:48.973Z,101073.41
2018-08-17T12:23:18.747Z,101075.83
2018-08-17T12:25:54.745Z,101079.31
2018-08-17T12:28:25.285Z,101082.06
2018-08-17T12:30:54.857Z,101082.69
2018-08-17T12:33:24.531Z,101084.96
2018-08-17T12:35:54.457Z,101086.53
2018-08-17T12:38:24.084Z,101090.41
2018-08-17T12:40:57.423Z,101089.56
2018-08-17T12:43:28.942Z,101090.91
2018-08-17T12:45:58.597Z,101095.13
2018-08-17T12:48:28.183Z,101095.61
2018-08-17T12:51:04.280Z,101092.73
2018-08-17T12:53:34.075Z,101087.19
2018-08-17T12:56:03.803Z,101091.55
2018-08-17T12:58:33.365Z,101089.00
2018-08-17T13:01:03.252Z,101100.70
2018-08-17T13:03:33.064Z,101096.61
2018-08-17T13:06:02.993Z,101108.42
2018-08-17T13:08:32.553Z,101103.73
2018-08-17T13:11:02.072Z,101104.78
2018-08-17T13:13:31.688Z,101109.59
2018-08-17T13:16:06.617Z,101098.27
2018-08-17T13:18:38.208Z,101102.27
2018-08-17T13:21:08.102Z,101101.89
2018-08-17T13:23:37.658Z,101101.76
2018-08-17T13:26:07.568Z,101105.43
2018-08-17T13:28:37.622Z,101111.56
2018-08-17T13:31:07.236Z,101105.53
2018-08-17T13:33:36.850Z,101096.48
2018-08-17T13:36:06.485Z,101098.50
2018-08-17T13:38:36.550Z,101102.24
2018-08-17T13:41:06.441Z,101109.22
2018-08-17T13:43:36.043Z,101101.11
2018-08-17T13:46:05.667Z,101100.63
2018-08-17T13:48:35.467Z,101104.53
2018-08-17T13:51:05.313Z,101094.87
2018-08-17T13:53:35.148Z,101100.15
2018-08-17T13:56:04.744Z,101100.13
2018-08-17T13:58:34.337Z,101098.30
2018-08-17T14:01:04.453Z,101092.89
2018-08-17T14:03:34.967Z,101088.05
2018-08-17T14:06:05.920Z,101100.38
2018-08-17T14:08:35.615Z,101092.55
2018-08-17T14:11:05.551Z,101091.33
2018-08-17T14:13:40.181Z,101101.87
2018-08-17T14:16:12.291Z,101100.39
2018-08-17T14:18:45.927Z,101090.38
2018-08-17T14:21:16.505Z,101096.03
2018-08-17T14:23:46.433Z,101090.13
2018-08-17T14:26:16.428Z,101085.80
2018-08-17T14:28:46.311Z,101081.39
2018-08-17T14:31:16.162Z,101091.52
2018-08-17T14:33:45.689Z,101090.33
2018-08-17T14:36:15.537Z,101083.77
2018-08-17T14:39:49.516Z,101094.34
2018-08-17T14:42:19.573Z,101090.84
2018-08-17T14:44:49.171Z,101090.48
2018-08-17T14:47:19.201Z,101089.73
2018-08-17T14:49:49.253Z,101097.13
2018-08-17T14:52:18.795Z,101103.51
2018-08-17T14:54:49.456Z,101100.63
2018-08-17T14:57:19.236Z,101096.97
2018-08-17T14:59:48.830Z,101090.33
2018-08-17T15:02:18.849Z,101096.38
2018-08-17T15:04:48.921Z,101096.97
2018-08-17T15:07:18.620Z,101090.30
2018-08-17T15:09:48.183Z,101099.83
2018-08-17T15:12:18.361Z,101094.85
2018-08-17T15:14:48.554Z,101095.34
2018-08-17T15:17:18.110Z,101098.44
2018-08-17T15:19:47.829Z,101094.64
2018-08-17T15:22:17.730Z,101090.84
2018-08-17T15:24:47.444Z,101078.98
2018-08-17T15:27:17.714Z,101091.70
2018-08-17T15:29:47.589Z,101072.09
2018-08-17T15:32:17.747Z,101087.37
2018-08-17T15:34:48.448Z,101090.99
2018-08-17T15:37:18.122Z,101088.30
2018-08-17T15:39:47.649Z,101085.05
2018-08-17T15:42:17.451Z,101086.73
2018-08-17T15:44:47.082Z,101087.33
2018-08-17T15:47:16.729Z,101087.55
2018-08-17T15:50:20.764Z,101084.70
2018-08-17T15:52:50.653Z,101084.04
2018-08-17T15:55:20.277Z,101089.36
2018-08-17T15:57:50.702Z,101085.48
2018-08-17T16:00:20.882Z,101080.35
2018-08-17T16:02:50.669Z,101085.44
2018-08-17T16:05:28.879Z,101087.14
2018-08-17T16:07:58.588Z,101087.55
2018-08-17T16:10:28.762Z,101079.65
2018-08-17T16:12:58.644Z,101079.65
2018-08-17T16:15:28.384Z,101083.86
2018-08-17T16:17:57.966Z,101085.63
2018-08-17T16:20:27.486Z,101080.86
2018-08-17T16:22:57.324Z,101077.63
2018-08-17T16:25:26.875Z,101078.10
2018-08-17T16:27:56.510Z,101082.65
2018-08-17T16:30:26.121Z,101077.59
2018-08-17T16:32:55.713Z,101068.91
2018-08-17T16:35:25.293Z,101079.11
2018-08-17T16:37:55.170Z,101082.21
2018-08-17T16:40:25.725Z,101083.86
2018-08-17T16:42:55.214Z,101086.30
2018-08-17T16:45:24.795Z,101081.73
2018-08-17T16:47:54.657Z,101081.46
2018-08-17T16:50:24.241Z,101080.83
2018-08-17T16:52:53.802Z,101079.44
2018-08-17T16:55:23.555Z,101087.31
2018-08-17T16:57:53.219Z,101088.42
2018-08-17T17:00:23.002Z,101090.20
2018-08-17T17:02:52.671Z,101086.13
2018-08-17T17:05:22.970Z,101086.91
2018-08-17T17:07:52.922Z,101091.27
2018-08-17T17:10:25.272Z,101088.75
2018-08-17T17:12:54.816Z,101088.95
2018-08-17T17:15:24.840Z,101096.41
2018-08-17T17:18:09.258Z,101090.72
2018-08-17T17:20:40.858Z,101098.27
2018-08-17T17:23:11.597Z,101092.46
2018-08-17T17:25:41.658Z,101088.95
2018-08-17T17:28:11.302Z,101087.81
2018-08-17T17:30:46.458Z,101098.94
2018-08-17T17:33:16.431Z,101091.66
2018-08-17T17:35:45.999Z,101089.66
2018-08-17T17:38:15.566Z,101099.41
2018-08-17T17:40:45.492Z,101094.95
2018-08-17T17:43:15.021Z,101099.08
2018-08-17T17:45:44.983Z,101096.80
2018-08-17T17:48:14.934Z,101098.05
2018-08-17T17:50:44.820Z,101101.08
2018-08-17T17:53:14.655Z,101104.59
2018-08-17T17:55:49.854Z,101100.64
2018-08-17T17:58:20.804Z,101103.48
2018-08-17T18:01:00.535Z,101104.09
2018-08-17T18:03:31.915Z,101104.24
2018-08-17T18:06:06.056Z,101076.86
2018-08-17T18:08:35.580Z,101104.61
2018-08-17T18:11:05.124Z,101102.66
2018-08-17T18:13:34.618Z,101101.10
2018-08-17T18:16:04.124Z,101102.58
2018-08-17T18:18:33.699Z,101109.70
2018-08-17T18:21:03.309Z,101112.13
2018-08-17T18:23:33.246Z,101107.92
2018-08-17T18:26:03.249Z,101109.50
2018-08-17T18:28:33.156Z,101109.87
2018-08-17T18:31:02.787Z,101121.35
2018-08-17T18:33:32.416Z,101118.95
2018-08-17T18:36:01.966Z,101118.48
2018-08-17T18:38:31.570Z,101127.94
2018-08-17T18:41:01.527Z,101123.97
2018-08-17T18:43:31.070Z,101137.73
2018-08-17T18:46:00.642Z,101138.23
2018-08-17T18:48:30.224Z,101137.52
2018-08-17T18:50:59.822Z,101138.73
2018-08-17T18:53:29.558Z,101134.27
2018-08-17T18:55:59.456Z,101147.46
2018-08-17T18:58:29.334Z,101144.92
2018-08-17T19:00:58.986Z,101151.34
2018-08-17T19:03:28.585Z,101156.42
2018-08-17T19:05:58.235Z,101151.08
2018-08-17T19:08:27.870Z,101149.05
2018-08-17T19:10:57.528Z,101160.02
2018-08-17T19:13:27.241Z,101166.56
2018-08-17T19:15:56.785Z,101170.17
2018-08-17T19:18:32.396Z,101175.86
2018-08-17T19:21:09.253Z,101176.34
2018-08-17T19:23:38.916Z,101181.42
2018-08-17T19:26:09.881Z,101180.81
2018-08-17T19:28:39.890Z,101186.86
2018-08-17T19:31:09.825Z,101187.20
2018-08-17T19:33:39.448Z,101191.93
2018-08-17T19:36:09.074Z,101191.31
2018-08-17T19:38:41.447Z,101188.53
2018-08-17T19:41:11.770Z,101189.86
2018-08-17T19:43:41.309Z,101187.67
2018-08-17T19:46:11.104Z,101194.42
2018-08-17T19:48:40.931Z,101195.41
2018-08-17T19:51:15.859Z,101189.58
2018-08-17T19:53:45.433Z,101195.22
2018-08-17T19:56:15.741Z,101202.31
2018-08-17T19:58:45.373Z,101206.17
2018-08-17T20:01:15.027Z,101204.38
2018-08-17T20:03:44.590Z,101210.88
2018-08-17T20:06:14.114Z,101219.06
2018-08-17T20:08:43.701Z,101216.03
2018-08-17T20:11:13.295Z,101213.83
2018-08-17T20:13:42.985Z,101220.79
2018-08-17T20:16:32.247Z,101225.09
2018-08-17T20:19:02.876Z,101224.72
2018-08-17T20:21:32.597Z,101227.00
2018-08-17T20:24:02.192Z,101221.56
2018-08-17T20:26:32.081Z,101226.39
2018-08-17T20:29:01.854Z,101227.09
2018-08-17T20:31:31.697Z,101225.84
2018-08-17T20:34:01.428Z,101227.03
2018-08-17T20:36:30.970Z,101218.45
2018-08-17T20:39:00.553Z,101221.70
2018-08-17T20:41:30.073Z,101229.87
2018-08-17T20:43:59.946Z,101226.05
2018-08-17T20:46:29.549Z,101233.11
2018-08-17T20:48:59.102Z,101240.04
2018-08-17T20:51:28.801Z,101241.80
2018-08-17T20:54:01.200Z,101237.27
2018-08-17T20:56:31.032Z,101237.44
2018-08-17T20:59:00.987Z,101247.30
2018-08-17T21:01:30.530Z,101237.02
2018-08-17T21:04:00.435Z,101238.92
2018-08-17T21:06:30.105Z,101239.56
2018-08-17T21:08:59.780Z,101244.44
2018-08-17T21:11:29.315Z,101239.45
2018-08-17T21:13:59.003Z,101242.81
2018-08-17T21:16:28.851Z,101246.09
2018-08-17T21:18:58.366Z,101248.69
2018-08-17T21:21:27.888Z,101250.34
2018-08-17T21:23:57.612Z,101255.98
2018-08-17T21:26:27.651Z,101255.56
2018-08-17T21:28:57.195Z,101257.36
2018-08-17T21:31:26.718Z,101247.10
2018-08-17T21:33:56.254Z,101257.52
2018-08-17T21:36:25.758Z,101260.87
2018-08-17T21:39:12.893Z,101252.76
2018-08-17T21:41:44.103Z,101261.58
2018-08-17T21:44:15.431Z,101255.93
2018-08-17T21:46:55.022Z,101261.08
2018-08-17T21:49:26.156Z,101255.99
2018-08-17T21:52:01.201Z,101258.17
2018-08-17T21:54:32.253Z,101264.31
2018-08-17T21:57:02.703Z,101267.51
2018-08-17T21:59:37.705Z,101264.52
2018-08-17T22:02:10.672Z,101264.59
2018-08-17T22:04:41.518Z,101268.56
2018-08-17T22:07:16.435Z,101270.74
2018-08-17T22:09:45.959Z,101272.66
2018-08-17T22:12:15.495Z,101274.56
2018-08-17T22:14:47.025Z,101270.69
2018-08-17T22:17:33.950Z,101279.20
2018-08-17T22:20:04.590Z,101278.94
2018-08-17T22:22:34.134Z,101276.17
2018-08-17T22:25:12.959Z,101270.39
2018-08-17T22:27:42.473Z,101272.98
2018-08-17T22:30:19.930Z,101280.51
2018-08-17T22:32:49.589Z,101281.06
2018-08-17T22:35:19.805Z,101287.00
2018-08-17T22:37:49.850Z,101285.98
2018-08-17T22:40:19.681Z,101282.86
2018-08-17T22:42:50.185Z,101284.83
2018-08-17T22:45:19.691Z,101291.24
2018-08-17T22:47:49.185Z,101293.53
2018-08-17T22:50:18.719Z,101297.64
2018-08-17T22:52:48.316Z,101298.52
2018-08-17T22:55:17.919Z,101302.33
2018-08-17T22:57:47.524Z,101305.45
2018-08-17T23:00:26.494Z,101309.69
2018-08-17T23:02:57.266Z,101305.80
2018-08-17T23:05:29.137Z,101308.09
2018-08-17T23:07:59.202Z,101310.35
2018-08-17T23:10:29.326Z,101313.52
2018-08-17T23:12:59.135Z,101320.64
2018-08-17T23:15:28.713Z,101318.39
2018-08-17T23:17:59.883Z,101321.69
2018-08-17T23:20:34.772Z,101317.41
2018-08-17T23:23:05.413Z,101318.47
2018-08-17T23:25:35.542Z,101317.53
2018-08-17T23:28:05.153Z,101320.89
2018-08-17T23:30:34.752Z,101318.75
2018-08-17T23:33:04.604Z,101312.80
2018-08-17T23:35:34.271Z,101317.63
2018-08-17T23:38:03.872Z,101316.84
2018-08-17T23:40:33.722Z,101320.66
2018-08-17T23:43:03.257Z,101324.81
2018-08-17T23:45:32.899Z,101329.52
2018-08-17T23:48:02.446Z,101328.20
2018-08-17T23:50:32.028Z,101328.70
2018-08-17T23:53:01.574Z,101321.63
2018-08-17T23:55:31.447Z,101326.52
2018-08-17T23:58:01.006Z,101332.50
